sim
Sign-in with your pilot id or email,
or register
Callsign
Passwort

Schedule Details

Flight Number: RYR4774 (3)
Departure: Milan Bergamo Il Caravaggio International Airport (LIME) at 17:05
Arrival: Thessaloniki International Airport (LGTS) at 19:10
Route: Ryanair Passenger Schedule. Enter filed route here before submitting Pirep.

Weather Information
Getting current METAR information for LIME 230720Z 34004KT 310V010 7000 -RA SCT025CB SCT050 BKN080 20/20 Q1023 RETSRA NOSIG
Getting current METAR information for LGTS 230720Z 27005KT CAVOK 29/19 Q1020 NOSIG

Schedule Frequency

Route Map